Time;durP1;ratioP1;P1;durP2;ratioP2;P2;SDS_P1;SDS_P2;PMS_P1;PMS_P2;Temp;Humidity;BMP_temperature;BMP_pressure;BME280_temperature;BME280_humidity;BME280_pressure;Samples;Min_cycle;Max_cycle;Signal;HPM_P1;HPM_P2
2022/06/22 00:02:14;;;;;;;3.65;1.88;;;;;;;23.41;41.49;101193.22;5032455;28;20728;-71
2022/06/22 00:05:05;;;;;;;2.75;1.67;;;;;;;23.44;41.19;101201.13;5018798;28;20392;-71
2022/06/22 00:07:36;;;;;;;2.67;1.80;;;;;;;23.44;41.44;101201.13;5046615;28;20454;-70
2022/06/22 00:10:16;;;;;;;2.92;1.80;;;;;;;23.42;41.36;101194.97;5042475;28;20393;-70
2022/06/22 00:12:41;;;;;;;1.92;1.70;;;;;;;23.42;41.50;101198.50;5023078;28;20402;-71
2022/06/22 00:15:25;;;;;;;2.80;2.10;;;;;;;23.40;41.15;101194.09;5025893;28;20400;-71
2022/06/22 00:17:53;;;;;;;3.45;1.90;;;;;;;23.42;41.59;101202.88;5043508;28;20599;-72
2022/06/22 00:20:30;;;;;;;4.07;2.00;;;;;;;23.42;41.45;101208.13;5043260;28;20411;-71
2022/06/22 00:22:55;;;;;;;2.47;1.83;;;;;;;23.31;41.78;101198.44;5032335;28;20400;-72
2022/06/22 00:25:28;;;;;;;2.50;1.70;;;;;;;23.42;41.63;101213.38;5043167;28;20405;-73
2022/06/22 00:27:54;;;;;;;3.00;2.30;;;;;;;23.42;41.14;101209.00;5048134;28;20399;-72
2022/06/22 00:30:26;;;;;;;3.83;1.90;;;;;;;23.34;41.22;101195.81;5034937;28;20387;-70
2022/06/22 00:33:16;;;;;;;2.33;1.73;;;;;;;23.43;41.51;101220.41;5043872;28;20737;-71
2022/06/22 00:35:50;;;;;;;2.70;1.70;;;;;;;23.43;41.89;101210.78;5048129;28;20410;-71
2022/06/22 00:38:36;;;;;;;3.10;1.80;;;;;;;23.43;41.84;101204.63;5039584;28;20452;-67
2022/06/22 00:41:04;;;;;;;2.30;1.70;;;;;;;23.42;41.50;101205.50;5025262;28;20755;-70
2022/06/22 00:43:32;;;;;;;2.75;2.00;;;;;;;23.40;41.73;101199.34;5041182;28;20401;-71
2022/06/22 00:45:59;;;;;;;3.22;1.85;;;;;;;23.42;41.17;101202.88;5047031;28;20403;-72
2022/06/22 00:48:34;;;;;;;3.03;1.67;;;;;;;23.41;41.79;101201.09;5039929;28;20892;-70
2022/06/22 00:51:08;;;;;;;2.60;1.85;;;;;;;23.42;41.01;101198.50;5047610;28;20535;-70
2022/06/22 00:53:36;;;;;;;1.88;1.67;;;;;;;23.42;41.13;101197.59;5039821;28;20466;-71
2022/06/22 00:56:09;;;;;;;1.90;1.70;;;;;;;23.40;41.34;101183.59;5044374;28;20399;-70
2022/06/22 00:59:02;;;;;;;2.90;1.90;;;;;;;23.39;41.71;101189.72;5022820;28;20427;-70
2022/06/22 01:01:42;;;;;;;3.58;1.98;;;;;;;23.41;41.20;101195.84;5042405;28;20839;-70
2022/06/22 01:04:20;;;;;;;2.42;1.70;;;;;;;23.42;41.09;101197.59;5006307;28;20404;-70
2022/06/22 01:07:04;;;;;;;3.75;1.90;;;;;;;23.41;41.38;101190.59;5032295;28;20735;-70
2022/06/22 01:09:48;;;;;;;3.27;1.97;;;;;;;23.40;41.58;101188.84;5051327;28;20533;-71
2022/06/22 01:12:36;;;;;;;3.00;2.00;;;;;;;23.41;41.58;101185.34;5030853;28;20384;-71
2022/06/22 01:15:11;;;;;;;2.90;1.93;;;;;;;23.42;41.52;101179.22;5021148;28;20392;-70
2022/06/22 01:20:10;;;;;;;2.88;2.05;;;;;;;23.42;41.65;101192.34;5011373;22;20904;-53
2022/06/22 01:22:51;;;;;;;2.63;1.80;;;;;;;23.42;40.97;101192.34;5030260;28;20475;-48
2022/06/22 01:25:51;;;;;;;2.67;1.90;;;;;;;23.23;41.33;101160.69;5034477;28;20443;-48
2022/06/22 01:28:16;;;;;;;2.13;1.70;;;;;;;23.33;41.71;101183.56;5034141;28;20794;-51
2022/06/22 01:30:44;;;;;;;3.73;1.77;;;;;;;23.41;41.48;101195.84;5029708;28;20474;-52
2022/06/22 01:33:23;;;;;;;2.73;1.90;;;;;;;23.34;41.49;101190.56;5026617;28;20380;-53
2022/06/22 01:35:53;;;;;;;2.17;1.70;;;;;;;23.42;41.77;101197.59;5007888;28;20438;-49
2022/06/22 01:38:29;;;;;;;3.20;2.00;;;;;;;23.41;41.29;101198.47;5024376;28;20983;-51
2022/06/22 01:41:42;;;;;;;2.78;1.73;;;;;;;23.42;41.38;101202.88;5007992;28;20410;-50
2022/06/22 01:44:30;;;;;;;3.17;1.80;;;;;;;23.41;41.27;101198.47;5015322;28;20391;-52
2022/06/22 01:47:11;;;;;;;3.47;1.92;;;;;;;23.42;41.36;101197.59;5014932;28;20379;-49
2022/06/22 01:49:51;;;;;;;2.70;1.98;;;;;;;23.41;41.48;101195.84;5048012;28;20482;-48
2022/06/22 01:52:38;;;;;;;2.80;1.83;;;;;;;23.42;41.81;101197.59;5045781;28;20401;-51
2022/06/22 01:55:33;;;;;;;2.83;1.97;;;;;;;23.39;41.55;101192.34;5038857;28;20922;-48
2022/06/22 01:58:21;;;;;;;2.67;2.03;;;;;;;23.41;42.01;101199.38;5052436;28;20456;-50
2022/06/22 02:00:55;;;;;;;2.72;2.17;;;;;;;23.41;41.72;101187.97;5022129;28;20745;-51
2022/06/22 02:03:32;;;;;;;2.43;1.80;;;;;;;23.40;41.67;101189.72;5047384;28;20399;-53
2022/06/22 02:09:04;;;;;;;2.87;1.80;;;;;;;23.42;41.30;101202.88;5036172;28;20475;-52
2022/06/22 02:11:34;;;;;;;2.97;1.83;;;;;;;23.41;42.08;101201.09;5033936;28;20851;-49
2022/06/22 02:14:08;;;;;;;2.80;1.80;;;;;;;23.39;41.59;101197.59;5030541;28;20385;-49
2022/06/22 02:16:57;;;;;;;2.53;1.90;;;;;;;23.40;41.30;101205.50;5025301;28;20389;-51
2022/06/22 02:19:25;;;;;;;2.47;1.98;;;;;;;23.40;41.63;101199.34;5023642;28;20405;-48
2022/06/22 02:21:52;;;;;;;2.30;1.87;;;;;;;23.41;41.16;101190.59;5025747;28;20400;-50
2022/06/22 02:24:32;;;;;;;4.07;2.00;;;;;;;23.42;41.57;101192.34;5028851;28;20407;-47
2022/06/22 02:27:04;;;;;;;3.05;1.90;;;;;;;23.41;41.52;101196.75;5017141;28;20475;-47
2022/06/22 02:29:46;;;;;;;2.65;1.88;;;;;;;23.41;41.57;101195.84;5023794;28;20381;-50
2022/06/22 02:32:16;;;;;;;3.27;2.10;;;;;;;23.42;41.21;101192.34;5025756;28;20456;-52
2022/06/22 02:34:46;;;;;;;2.78;2.22;;;;;;;23.41;41.58;101175.72;5019079;28;20407;-47
2022/06/22 02:37:11;;;;;;;3.08;1.95;;;;;;;23.40;41.18;101173.97;5009622;28;20395;-48
2022/06/22 02:39:43;;;;;;;2.55;1.85;;;;;;;23.41;41.60;101175.72;5010873;28;20385;-48
2022/06/22 02:44:56;;;;;;;2.55;1.95;;;;;;;23.39;42.01;101182.72;5038892;28;20471;-53
2022/06/22 02:47:29;;;;;;;3.47;2.00;;;;;;;23.38;41.47;101180.06;5032274;28;20471;-49
2022/06/22 02:50:03;;;;;;;2.40;1.95;;;;;;;23.40;41.49;101189.72;5038812;28;20395;-54
2022/06/22 02:52:49;;;;;;;2.88;1.95;;;;;;;23.37;41.41;101178.31;5027899;28;20395;-47
2022/06/22 02:55:20;;;;;;;2.38;1.80;;;;;;;23.40;41.12;101173.06;5014875;28;20425;-46
2022/06/22 02:57:51;;;;;;;3.13;1.98;;;;;;;23.40;41.73;101163.44;5016582;28;20434;-52
2022/06/22 03:00:21;;;;;;;3.22;2.00;;;;;;;23.41;41.92;101159.06;5051802;28;20400;-49
2022/06/22 03:02:47;;;;;;;3.15;2.15;;;;;;;23.41;41.55;101156.44;5050934;28;20392;-51
2022/06/22 03:05:19;;;;;;;3.25;1.90;;;;;;;23.40;41.67;101152.03;5032286;28;20414;-50
2022/06/22 03:07:56;;;;;;;3.25;2.03;;;;;;;23.41;41.76;101159.06;5024821;28;20815;-51
2022/06/22 03:10:22;;;;;;;4.10;2.00;;;;;;;23.42;41.09;101158.19;5033392;28;20466;-47
2022/06/22 03:12:49;;;;;;;2.60;1.90;;;;;;;23.40;41.47;101162.56;5016284;28;20457;-53
2022/06/22 03:15:19;;;;;;;2.90;1.85;;;;;;;23.40;41.41;101157.28;5030903;28;20487;-51
2022/06/22 03:17:45;;;;;;;2.97;2.35;;;;;;;23.39;41.28;101161.69;5035076;28;20427;-48
2022/06/22 03:20:20;;;;;;;3.10;2.00;;;;;;;23.41;41.84;101159.06;5016126;28;20890;-53
2022/06/22 03:22:50;;;;;;;3.47;1.92;;;;;;;23.40;41.45;101162.56;5032716;28;20402;-49
2022/06/22 03:25:22;;;;;;;4.68;2.13;;;;;;;23.39;41.46;101150.28;5043596;28;20400;-46
2022/06/22 03:27:56;;;;;;;2.42;2.00;;;;;;;23.27;41.78;101125.72;5028999;28;20403;-48
2022/06/22 03:30:25;;;;;;;2.65;1.90;;;;;;;23.40;41.41;101146.78;5032575;28;20395;-50
2022/06/22 03:32:55;;;;;;;2.60;2.00;;;;;;;23.39;41.28;101161.69;5032553;28;20466;-51
2022/06/22 03:35:28;;;;;;;3.05;1.90;;;;;;;23.41;40.98;101164.31;5032752;28;20371;-51
2022/06/22 03:38:13;;;;;;;2.60;1.70;;;;;;;23.39;41.62;101158.16;5024748;28;20753;-49
2022/06/22 03:40:45;;;;;;;2.42;1.90;;;;;;;23.41;41.64;101153.78;5027853;28;20432;-53
2022/06/22 03:43:14;;;;;;;2.38;1.90;;;;;;;23.42;41.73;101160.81;5058622;28;20419;-51
2022/06/22 03:45:44;;;;;;;3.13;2.30;;;;;;;23.42;41.28;101160.81;5043563;28;20418;-51
2022/06/22 03:48:15;;;;;;;2.72;1.83;;;;;;;23.42;41.53;101171.31;5036378;28;20390;-49
2022/06/22 03:50:57;;;;;;;3.22;1.88;;;;;;;23.26;41.65;101133.56;5036011;28;20386;-48
2022/06/22 03:53:57;;;;;;;2.65;1.92;;;;;;;23.41;41.08;101159.06;5038113;28;20410;-45
2022/06/22 03:56:27;;;;;;;2.80;1.90;;;;;;;23.41;41.16;101159.06;5033129;28;20399;-52
2022/06/22 03:58:53;;;;;;;3.03;2.00;;;;;;;23.39;41.42;101158.16;5052556;28;20391;-47
2022/06/22 04:01:19;;;;;;;2.38;2.00;;;;;;;23.41;41.55;101161.69;5052729;28;20461;-50
2022/06/22 04:03:44;;;;;;;3.72;2.30;;;;;;;23.40;41.27;101162.56;5035924;28;20729;-54
2022/06/22 04:06:19;;;;;;;3.33;1.87;;;;;;;23.42;41.65;101181.84;5034477;28;20474;-50
2022/06/22 04:08:47;;;;;;;2.30;1.90;;;;;;;23.40;41.64;101188.84;5033310;28;20456;-47
2022/06/22 04:11:29;;;;;;;3.20;2.10;;;;;;;23.45;41.16;101179.22;5034975;28;20399;-50
2022/06/22 04:14:10;;;;;;;2.95;1.83;;;;;;;23.47;41.42;101174.84;5035623;28;20895;-52
2022/06/22 04:16:38;;;;;;;3.20;1.90;;;;;;;23.48;41.33;101176.59;5031956;28;20415;-50
2022/06/22 04:19:14;;;;;;;2.78;2.08;;;;;;;23.48;40.82;101181.88;5018750;28;20399;-54
2022/06/22 04:21:46;;;;;;;2.92;2.10;;;;;;;23.46;41.30;101195.00;5034771;28;21664;-53
2022/06/22 04:24:28;;;;;;;3.13;2.00;;;;;;;23.49;41.62;101196.75;5030945;28;20461;-55
2022/06/22 04:27:10;;;;;;;3.30;2.00;;;;;;;23.48;41.27;101189.75;5050204;28;20396;-49
2022/06/22 04:29:40;;;;;;;2.97;2.30;;;;;;;23.47;41.64;101185.38;5011733;28;20427;-54
2022/06/22 04:32:15;;;;;;;3.00;2.10;;;;;;;23.45;41.62;101182.75;5031596;28;20424;-55
2022/06/22 04:34:51;;;;;;;3.30;2.17;;;;;;;23.46;41.42;101188.88;5051577;28;20461;-49
2022/06/22 04:37:31;;;;;;;3.67;2.50;;;;;;;23.48;41.24;101198.53;5030033;28;20416;-48
2022/06/22 04:40:23;;;;;;;3.70;2.20;;;;;;;23.48;41.06;101197.63;5034600;28;20375;-53
2022/06/22 04:42:53;;;;;;;3.72;2.05;;;;;;;23.43;41.35;101195.00;5046367;28;20406;-53
2022/06/22 04:45:26;;;;;;;4.07;2.00;;;;;;;23.48;41.57;101197.63;5031671;28;20394;-50
2022/06/22 04:47:52;;;;;;;3.45;2.08;;;;;;;23.48;41.20;101200.25;5041824;28;20403;-54
2022/06/22 04:50:17;;;;;;;6.53;2.33;;;;;;;23.53;41.13;101197.66;5039737;28;20538;-54
2022/06/22 04:52:47;;;;;;;3.33;2.33;;;;;;;23.52;41.24;101212.53;5031596;28;20399;-52
2022/06/22 04:55:15;;;;;;;4.55;2.50;;;;;;;23.48;40.95;101213.41;5045875;28;20426;-50
2022/06/22 04:57:42;;;;;;;4.30;2.42;;;;;;;23.46;40.89;101200.28;5028518;28;20875;-54
2022/06/22 05:00:14;;;;;;;3.28;2.30;;;;;;;23.56;40.88;101222.19;5033194;28;20437;-53
2022/06/22 05:02:40;;;;;;;3.80;2.25;;;;;;;23.55;40.68;101220.44;5017094;28;20455;-53
2022/06/22 05:05:27;;;;;;;3.35;2.20;;;;;;;23.53;41.55;101226.59;5012505;28;20385;-49
2022/06/22 05:08:09;;;;;;;5.10;2.40;;;;;;;23.60;41.15;101223.97;5034963;28;20406;-44
2022/06/22 05:10:49;;;;;;;6.32;2.60;;;;;;;23.56;41.23;101206.44;5050930;28;20478;-52
2022/06/22 05:13:22;;;;;;;6.03;3.67;;;;;;;23.48;40.68;101223.91;5026044;28;20384;-54
2022/06/22 05:15:50;;;;;;;7.82;3.75;;;;;;;23.21;40.77;101222.88;5035827;28;20817;-53
2022/06/22 05:18:23;;;;;;;7.88;3.33;;;;;;;23.04;41.14;101217.50;5040030;28;20400;-55
2022/06/22 05:21:00;;;;;;;6.57;3.13;;;;;;;23.01;41.55;101218.38;5032192;28;20560;-52
2022/06/22 05:23:30;;;;;;;7.88;3.70;;;;;;;22.93;41.27;101225.31;5024064;28;20520;-46
2022/06/22 05:25:58;;;;;;;6.32;3.50;;;;;;;22.85;41.14;101232.28;5050979;28;20380;-46
2022/06/22 05:28:31;;;;;;;6.95;3.70;;;;;;;22.85;41.63;101230.50;5045397;28;20428;-53
2022/06/22 05:31:04;;;;;;;6.55;3.00;;;;;;;22.89;41.60;101234.06;5046947;28;20399;-49
2022/06/22 05:33:32;;;;;;;7.10;3.35;;;;;;;22.88;41.15;101227.91;5047670;28;20364;-49
2022/06/22 05:36:27;;;;;;;7.18;3.75;;;;;;;22.88;41.92;101232.28;5022985;28;20864;-48
2022/06/22 05:38:58;;;;;;;4.85;3.30;;;;;;;22.88;41.15;101229.66;5039522;28;21004;-47
2022/06/22 05:41:45;;;;;;;7.90;3.90;;;;;;;22.82;41.00;101216.50;5052078;28;20442;-48
2022/06/22 05:44:19;;;;;;;6.63;3.45;;;;;;;22.80;41.44;101212.94;5019698;28;20381;-47
2022/06/22 05:46:51;;;;;;;5.43;2.97;;;;;;;22.84;41.43;101214.75;5032529;28;20393;-43
2022/06/22 05:49:17;;;;;;;6.70;2.80;;;;;;;22.88;41.98;101211.28;5047864;28;20385;-48
2022/06/22 05:51:56;;;;;;;7.57;3.40;;;;;;;22.94;41.63;101216.56;5032788;28;20388;-44
2022/06/22 05:54:37;;;;;;;7.82;3.90;;;;;;;23.01;41.85;101206.97;5048081;28;20407;-49
2022/06/22 05:57:11;;;;;;;8.55;3.65;;;;;;;23.07;41.62;101195.63;5029146;28;20541;-45
2022/06/22 05:59:45;;;;;;;15.27;4.10;;;;;;;23.08;42.36;101186.88;5049119;28;20376;-47
2022/06/22 06:02:28;;;;;;;20.13;5.90;;;;;;;23.21;42.74;101188.72;5026074;28;20394;-44
2022/06/22 06:05:14;;;;;;;11.80;4.07;;;;;;;23.13;41.41;101186.03;5047032;28;20425;-43
2022/06/22 06:07:52;;;;;;;20.35;5.35;;;;;;;23.09;42.92;101172.88;5037665;28;20435;-46
2022/06/22 06:10:29;;;;;;;10.82;4.30;;;;;;;23.13;42.27;101174.66;5056263;28;20404;-48
2022/06/22 06:13:15;;;;;;;11.75;4.20;;;;;;;23.10;41.32;101169.38;5032490;28;20388;-46
2022/06/22 06:15:41;;;;;;;8.57;3.50;;;;;;;23.04;41.47;101171.13;5050973;28;20851;-45
2022/06/22 06:18:12;;;;;;;8.77;3.47;;;;;;;23.05;42.11;101172.88;5033091;28;20398;-46
2022/06/22 06:20:45;;;;;;;10.63;4.05;;;;;;;23.07;41.93;101174.63;5027978;28;20395;-45
2022/06/22 06:23:27;;;;;;;9.23;3.50;;;;;;;23.09;41.99;101170.25;5042015;28;20800;-48
2022/06/22 06:29:00;;;;;;;8.68;3.67;;;;;;;23.03;41.66;101158.84;5048625;28;20763;-46
2022/06/22 06:31:36;;;;;;;9.65;3.97;;;;;;;23.03;42.34;101169.34;5012025;28;20381;-43
2022/06/22 06:34:10;;;;;;;12.10;3.47;;;;;;;23.11;42.36;101176.41;5047781;28;20387;-45
2022/06/22 06:36:42;;;;;;;12.60;3.72;;;;;;;23.17;42.25;101189.56;5031332;28;20375;-46
2022/06/22 06:39:15;;;;;;;10.77;3.55;;;;;;;23.20;41.80;101186.97;5025764;28;20399;-44
2022/06/22 06:41:47;;;;;;;10.60;3.70;;;;;;;23.08;42.25;101172.00;5051186;28;20731;-46
2022/06/22 06:44:20;;;;;;;8.77;4.00;;;;;;;23.19;41.58;101179.94;5031824;28;20397;-46
2022/06/22 06:46:54;;;;;;;7.90;3.40;;;;;;;23.12;41.32;101178.16;5032305;28;20537;-44
2022/06/22 06:49:29;;;;;;;8.38;3.67;;;;;;;23.04;42.27;101184.25;5054734;28;20711;-48
2022/06/22 06:52:04;;;;;;;10.17;3.93;;;;;;;23.03;42.22;101179.84;5027858;28;20383;-44
2022/06/22 06:54:54;;;;;;;8.13;3.70;;;;;;;23.10;42.28;101179.91;5058397;28;20392;-46
2022/06/22 06:57:20;;;;;;;6.72;3.28;;;;;;;23.18;43.16;101186.06;5036457;28;20471;-44
2022/06/22 07:00:06;;;;;;;7.60;3.35;;;;;;;23.20;41.87;101194.84;5048680;28;20375;-45
2022/06/22 07:02:35;;;;;;;7.70;3.10;;;;;;;23.13;41.91;101185.16;5051273;28;20931;-47
2022/06/22 07:05:02;;;;;;;7.05;3.28;;;;;;;23.09;42.19;101193.91;5048605;28;20377;-45
2022/06/22 07:08:00;;;;;;;8.10;3.17;;;;;;;23.11;42.33;101197.41;5030562;28;20866;-46
2022/06/22 07:10:36;;;;;;;6.97;3.05;;;;;;;23.15;41.82;101193.94;5012632;28;20841;-47
2022/06/22 07:13:26;;;;;;;8.55;3.40;;;;;;;23.00;41.91;101179.84;5040515;28;20868;-44
2022/06/22 07:15:58;;;;;;;9.30;3.53;;;;;;;23.18;42.33;101220.22;5024507;28;20383;-45
2022/06/22 07:18:30;;;;;;;10.07;3.83;;;;;;;23.14;42.20;101223.72;5029579;28;20407;-47
2022/06/22 07:21:25;;;;;;;7.40;3.20;;;;;;;23.10;42.48;101216.69;5066769;22;21548;-65
2022/06/22 07:24:13;;;;;;;9.37;3.63;;;;;;;23.14;41.68;101213.19;4999492;28;20441;-68
2022/06/22 07:27:14;;;;;;;7.13;3.60;;;;;;;23.18;41.95;101220.22;4969089;28;20391;-67
2022/06/22 07:30:06;;;;;;;8.27;3.60;;;;;;;23.19;42.02;101221.97;4955584;28;20385;-66
2022/06/22 07:32:54;;;;;;;8.55;4.00;;;;;;;23.11;42.52;101224.56;4971560;28;20388;-66
2022/06/22 07:35:42;;;;;;;8.85;3.90;;;;;;;23.09;41.82;101223.66;4992615;28;20381;-66
2022/06/22 07:38:39;;;;;;;6.90;3.30;;;;;;;23.12;42.23;101220.19;4971781;28;20387;-65
2022/06/22 07:41:19;;;;;;;5.50;3.40;;;;;;;22.96;42.07;101188.56;4992098;28;20871;-65
2022/06/22 07:44:00;;;;;;;8.95;3.85;;;;;;;22.65;42.46;101169.94;4985959;28;20394;-66
2022/06/22 07:46:52;;;;;;;7.47;3.50;;;;;;;23.00;42.01;101216.63;4998838;28;20383;-66
2022/06/22 07:49:23;;;;;;;6.13;3.50;;;;;;;22.95;42.77;101210.47;4972638;28;20498;-66
2022/06/22 07:51:54;;;;;;;7.85;3.60;;;;;;;22.90;41.90;101209.53;4983511;28;20387;-66
2022/06/22 07:54:28;;;;;;;6.88;3.78;;;;;;;22.91;42.15;101212.16;4996063;28;20368;-65
2022/06/22 07:57:12;;;;;;;7.53;3.67;;;;;;;22.89;42.43;101208.66;5001078;28;20400;-66
2022/06/22 07:59:43;;;;;;;8.45;3.53;;;;;;;22.86;42.34;101207.75;5005199;28;20387;-66
2022/06/22 08:02:18;;;;;;;8.43;4.03;;;;;;;22.86;42.16;101205.13;5011976;28;20446;-67
2022/06/22 08:05:07;;;;;;;7.07;4.03;;;;;;;22.93;42.04;101206.03;4990035;28;20376;-66
2022/06/22 08:07:54;;;;;;;6.57;3.70;;;;;;;22.96;41.93;101209.59;4971211;28;20405;-67
2022/06/22 08:10:27;;;;;;;7.50;3.72;;;;;;;23.07;42.55;101206.16;5002767;28;20450;-67
2022/06/22 08:12:55;;;;;;;6.93;4.00;;;;;;;23.13;42.48;101216.69;4969216;28;20389;-66
2022/06/22 08:15:33;;;;;;;6.50;3.92;;;;;;;22.97;42.01;101194.69;4987421;28;20375;-66
2022/06/22 08:17:59;;;;;;;8.70;4.60;;;;;;;23.13;42.45;101221.94;4979724;28;20400;-68
2022/06/22 08:20:30;;;;;;;5.18;3.90;;;;;;;23.16;42.47;101211.47;4960422;28;20547;-66
2022/06/22 08:22:58;;;;;;;7.05;4.10;;;;;;;23.09;41.74;101204.41;4968009;28;20426;-64
2022/06/22 08:25:29;;;;;;;7.78;4.20;;;;;;;23.13;42.27;101200.94;4995910;28;20576;-65
2022/06/22 08:27:54;;;;;;;7.82;4.57;;;;;;;23.16;41.65;101200.94;5005290;28;20398;-67
2022/06/22 08:30:23;;;;;;;9.43;4.73;;;;;;;23.10;41.68;101211.41;4976277;28;20387;-63
2022/06/22 08:32:56;;;;;;;8.82;4.65;;;;;;;23.21;42.26;101209.72;4988432;28;20940;-65
2022/06/22 08:35:27;;;;;;;6.78;4.68;;;;;;;23.25;41.99;101210.66;5011651;28;20403;-65
2022/06/22 08:37:57;;;;;;;7.30;4.40;;;;;;;23.23;42.08;101213.25;4955971;28;20476;-63
2022/06/22 08:40:49;;;;;;;8.50;4.80;;;;;;;23.27;41.61;101214.16;4979423;28;20394;-71
2022/06/22 08:43:20;;;;;;;7.68;4.93;;;;;;;23.20;42.22;101202.72;4966372;28;20421;-66
2022/06/22 08:46:07;;;;;;;13.05;5.20;;;;;;;23.16;42.09;101201.81;4985318;28;20397;-69
2022/06/22 08:48:46;;;;;;;8.82;5.28;;;;;;;23.08;41.88;101215.78;5005006;28;20395;-66
2022/06/22 08:51:18;;;;;;;10.88;5.40;;;;;;;23.01;42.35;101212.22;4998059;28;20403;-62
2022/06/22 08:54:14;;;;;;;10.88;5.47;;;;;;;22.93;42.50;101209.56;5011074;28;20375;-62
2022/06/22 08:56:53;;;;;;;10.32;5.20;;;;;;;22.83;42.79;101202.50;5016528;28;20463;-67
2022/06/22 08:59:41;;;;;;;8.90;5.20;;;;;;;22.90;42.55;101220.06;4956937;28;20381;-65
2022/06/22 09:02:30;;;;;;;10.32;5.32;;;;;;;22.90;42.53;101220.06;5001232;28;20397;-62
2022/06/22 09:05:07;;;;;;;9.50;6.00;;;;;;;22.91;42.40;101221.81;4980725;28;21018;-62
2022/06/22 09:07:42;;;;;;;11.82;5.88;;;;;;;22.91;42.24;101221.81;4991769;28;20377;-61
2022/06/22 09:10:22;;;;;;;9.05;5.50;;;;;;;22.91;42.63;101221.81;4992805;28;20372;-66
2022/06/22 09:13:19;;;;;;;8.93;5.20;;;;;;;22.91;42.42;101232.31;4975585;28;20400;-62
2022/06/22 09:15:50;;;;;;;9.82;5.20;;;;;;;22.97;42.38;101232.34;4978590;28;20395;-61
2022/06/22 09:18:27;;;;;;;9.17;6.07;;;;;;;22.96;41.33;101235.84;4975535;28;20741;-58
2022/06/22 09:21:17;;;;;;;7.15;4.63;;;;;;;23.02;42.25;101241.16;4975451;28;20439;-63
2022/06/22 09:23:53;;;;;;;8.32;4.57;;;;;;;23.05;41.71;101241.16;4991782;28;20375;-64
2022/06/22 09:26:35;;;;;;;11.20;5.43;;;;;;;23.07;41.89;101245.56;4962234;28;20883;-61
2022/06/22 09:29:13;;;;;;;7.40;4.70;;;;;;;23.03;41.28;101248.16;4974611;28;20411;-61
2022/06/22 09:31:56;;;;;;;7.53;4.40;;;;;;;23.00;41.37;101248.13;4958341;28;20939;-57
2022/06/22 09:34:33;;;;;;;10.20;4.75;;;;;;;23.01;41.27;101244.66;4973993;28;20373;-60
2022/06/22 09:37:03;;;;;;;9.82;4.57;;;;;;;23.00;41.59;101232.38;4973700;28;20488;-59
2022/06/22 09:39:59;;;;;;;8.45;4.75;;;;;;;23.11;40.74;101250.81;4958572;28;20400;-59
2022/06/22 09:43:00;;;;;;;8.80;5.00;;;;;;;23.15;41.54;101251.75;4989231;28;20492;-60
2022/06/22 09:45:36;;;;;;;6.82;5.05;;;;;;;22.95;40.37;101220.97;4949899;28;20385;-64
2022/06/22 09:48:20;;;;;;;9.93;4.80;;;;;;;23.11;40.73;101252.59;4992227;28;20847;-61
2022/06/22 09:51:07;;;;;;;8.93;5.45;;;;;;;23.11;40.04;101249.97;4975202;28;20380;-63
2022/06/22 09:53:57;;;;;;;8.77;4.82;;;;;;;23.01;40.66;101236.75;4996807;28;20391;-62
2022/06/22 09:56:40;;;;;;;9.82;5.35;;;;;;;23.16;40.53;101253.50;4987086;28;20683;-62
2022/06/22 09:59:28;;;;;;;8.83;5.57;;;;;;;23.14;40.74;101249.97;4975786;28;20462;-62
2022/06/22 10:02:16;;;;;;;8.90;5.00;;;;;;;23.21;40.71;101246.53;5010302;28;20406;-61
2022/06/22 10:04:59;;;;;;;9.77;5.22;;;;;;;23.19;40.95;101243.88;5012140;28;20367;-61
2022/06/22 10:07:30;;;;;;;6.95;5.07;;;;;;;23.19;40.41;101248.25;4993593;28;20865;-63
2022/06/22 10:10:20;;;;;;;7.47;4.60;;;;;;;23.24;40.22;101248.31;4991964;28;20377;-61
2022/06/22 10:13:10;;;;;;;6.77;4.60;;;;;;;23.25;39.66;101243.06;4991047;28;20388;-61
2022/06/22 10:15:41;;;;;;;8.45;4.85;;;;;;;23.30;39.51;101246.59;5003170;28;20451;-61
2022/06/22 10:18:44;;;;;;;8.70;4.60;;;;;;;23.30;39.73;101241.34;4983037;28;20381;-62
2022/06/22 10:21:12;;;;;;;7.75;4.57;;;;;;;23.29;39.96;101239.59;4992341;28;20425;-63
2022/06/22 10:24:04;;;;;;;9.55;4.93;;;;;;;23.28;39.47;101237.84;4996021;28;20679;-61
2022/06/22 10:26:53;;;;;;;7.67;4.60;;;;;;;23.22;39.65;101229.00;5003236;28;20370;-60
2022/06/22 10:29:50;;;;;;;7.65;4.63;;;;;;;23.28;39.18;101243.09;5003992;28;20401;-59
2022/06/22 10:32:22;;;;;;;7.97;4.20;;;;;;;23.33;38.94;101241.38;4988340;28;20369;-59
2022/06/22 10:35:42;;;;;;;7.88;4.35;;;;;;;23.31;38.75;101224.72;4985203;28;20856;-60
2022/06/22 10:38:17;;;;;;;7.93;4.65;;;;;;;23.34;39.10;101221.25;4913920;29;20390;-60
2022/06/22 10:47:13;;;;;;;8.63;4.18;;;;;;;23.43;38.94;101230.91;4983564;28;20894;-59
2022/06/22 10:50:01;;;;;;;7.45;4.70;;;;;;;23.36;38.71;101223.84;4974413;28;20412;-60
2022/06/22 10:52:47;;;;;;;7.95;4.38;;;;;;;23.37;39.35;101215.09;4985895;28;20394;-60
2022/06/22 10:55:45;;;;;;;8.93;4.18;;;;;;;23.41;38.95;101222.13;4987569;28;20384;-60
2022/06/22 10:58:35;;;;;;;7.55;4.32;;;;;;;23.44;38.11;101211.63;4962437;28;20428;-60
2022/06/22 11:01:18;;;;;;;6.75;3.70;;;;;;;23.43;38.37;101204.63;4994237;28;20380;-60
2022/06/22 11:04:02;;;;;;;6.05;3.78;;;;;;;23.37;37.67;101204.59;4993157;28;20845;-60
2022/06/22 11:06:34;;;;;;;7.85;3.92;;;;;;;23.38;36.99;101206.34;4985926;28;20856;-61
2022/06/22 11:09:25;;;;;;;7.30;3.50;;;;;;;23.39;38.19;101208.09;5007569;28;20734;-60
2022/06/22 11:11:50;;;;;;;8.13;4.07;;;;;;;23.33;37.79;101187.94;4986649;28;20427;-60
2022/06/22 11:14:39;;;;;;;6.67;3.90;;;;;;;23.44;38.16;101201.13;4991578;28;20421;-60
2022/06/22 11:17:48;;;;;;;6.85;3.80;;;;;;;23.47;37.58;101206.38;4987347;28;20364;-60
2022/06/22 11:20:29;;;;;;;7.65;3.78;;;;;;;23.47;38.80;101201.13;4918720;29;20437;-60
2022/06/22 11:23:00;;;;;;;6.80;3.88;;;;;;;23.39;38.32;101181.81;4977160;28;20813;-60
2022/06/22 11:31:59;;;;;;;5.72;3.45;;;;;;;23.56;39.30;101198.53;5007481;28;20380;-60
2022/06/22 11:34:36;;;;;;;5.95;3.30;;;;;;;23.47;38.94;101180.09;4979092;28;20459;-59
2022/06/22 11:37:11;;;;;;;6.13;3.55;;;;;;;23.56;38.45;101189.78;5011770;28;20382;-60
2022/06/22 11:39:57;;;;;;;6.38;3.45;;;;;;;23.59;38.54;101195.94;4997623;28;20371;-60
2022/06/22 11:42:50;;;;;;;8.52;3.53;;;;;;;23.62;38.80;101190.69;5012125;28;20541;-59
2022/06/22 11:48:06;;;;;;;6.78;3.35;;;;;;;23.57;38.12;101181.91;4993785;28;20576;-60
2022/06/22 11:50:42;;;;;;;10.15;3.55;;;;;;;23.52;37.64;101170.50;5012689;28;20732;-60
2022/06/22 11:53:21;;;;;;;7.35;3.35;;;;;;;23.66;36.94;101195.94;5002239;28;20380;-60
2022/06/22 11:55:51;;;;;;;6.60;3.65;;;;;;;23.64;37.09;101183.69;4990960;28;20389;-58
2022/06/22 11:58:39;;;;;;;6.65;3.50;;;;;;;23.67;37.00;101184.56;5012086;28;20387;-60
2022/06/22 12:01:15;;;;;;;5.80;3.50;;;;;;;23.67;37.48;101187.19;4980355;28;20427;-60
2022/06/22 12:04:12;;;;;;;7.50;3.80;;;;;;;23.66;37.40;101181.06;4971362;28;20793;-59
2022/06/22 12:07:24;;;;;;;6.93;3.55;;;;;;;23.67;37.15;101181.94;4998988;28;20406;-60
2022/06/22 12:10:09;;;;;;;7.27;3.50;;;;;;;23.72;37.41;101180.19;4986227;28;20401;-59
2022/06/22 12:12:46;;;;;;;6.43;3.50;;;;;;;23.72;36.60;101170.56;4993278;28;20404;-59
2022/06/22 12:15:40;;;;;;;6.15;3.13;;;;;;;23.73;37.26;101181.94;4985897;28;20379;-60
2022/06/22 12:18:35;;;;;;;7.38;4.53;;;;;;;23.74;36.53;101178.44;4982387;28;20368;-60
2022/06/22 12:21:31;;;;;;;5.75;3.42;;;;;;;23.73;36.21;101176.69;4978166;28;20395;-60
2022/06/22 12:24:04;;;;;;;6.53;3.40;;;;;;;23.76;36.51;101176.69;4986989;28;20776;-60
2022/06/22 12:26:51;;;;;;;5.68;3.08;;;;;;;23.75;35.81;101164.41;5022947;28;20394;-60
2022/06/22 12:29:45;;;;;;;6.17;3.50;;;;;;;23.77;35.97;101167.94;5015873;28;20386;-60
2022/06/22 12:32:13;;;;;;;6.22;3.30;;;;;;;23.78;35.96;101159.16;4998564;28;20373;-60
2022/06/22 12:35:04;;;;;;;7.93;3.80;;;;;;;23.66;36.38;101133.72;4984111;28;20475;-60
2022/06/22 12:37:35;;;;;;;7.28;3.10;;;;;;;23.81;36.49;101163.56;4960799;28;20431;-60
2022/06/22 12:40:20;;;;;;;5.67;3.27;;;;;;;23.80;36.67;101146.91;4969374;28;20681;-60
2022/06/22 12:43:01;;;;;;;5.53;3.30;;;;;;;23.78;36.25;101144.28;4992442;28;20405;-60